• Join FlightAware (Why Join?)
  • Login
  • US Flag 
12:57AM EDT


 

Airport Tracker/Info


-or-


 

Live Flight TrackerFlight Track Log ✈ UAL33 ✈ 07-Jun-2013 ✈ KORD - KIAH

Flight Track Log - Related Links

Times and Time Zones

All times are in EDT time to prevent confusion due to time zone crossing. See the UAL33 flight status page for this flight to view local times or setup timezone preferences in your user account.

Time Position Orientation Groundspeed Altitude Reporting Facility
EDT Latitude Longitude Course Direction KTS MPH feet Rate Location/Type
09:46PM 41.9810 -87.9120 North 22 25  Level FlightAware
09:46PM 41.9810 -87.9130 270° West 18 21 180 Level FlightAware
09:47PM 41.9820 -87.9150 304° West 16 18 240 Level FlightAware
09:47PM 41.9830 -87.9170 304° West 30 35 300 Level FlightAware
09:48PM 41.9830 -87.9180 270° West 25 29 420 Level FlightAware
09:49PM 41.9840 -87.9140 71° East 80 92 600 Level FlightAware
09:49PM 41.9840 -87.9040 90° East 118 136 600 2,280 Climbing FlightAware
09:49PM 41.9830 -87.8810 93° East 162 186 1,500 2,520 Climbing FlightAware
09:49PM 41.9740 -87.8660 129° Southeast 185 213 2,400 3,120 Climbing FlightAware
09:50PM 41.9530 -87.8440 142° Southeast 217 250 3,800 2,820 Climbing FlightAware
09:50PM 41.9260 -87.8250 152° Southeast 257 296 5,100 3,000 Climbing FlightAware
09:51PM 41.8930 -87.8290 185° South 280 322 6,600 3,840 Climbing FlightAware
09:51PM 41.8580 -87.8350 187° South 285 328 8,500 4,200 Climbing FlightAware
09:52PM 41.8000 -87.8530 193° South 295 339 11,600 3,840 Climbing FlightAware
09:53PM 41.7460 -87.8770 198° South 311 358 14,000 2,400 Climbing FlightAware
09:53PM 41.6850 -87.9050 199° South 321 369 15,000 1,500 Climbing FlightAware
09:54PM 41.6250 -87.9320 199° South 329 379 16,200 2,340 Climbing FlightAware
09:55PM 41.5640 -87.9600 199° South 354 407 18,300 3,300 Climbing FlightAware
09:56PM 41.4920 -87.9920 198° South 367 422 21,000 3,300 Climbing FlightAware
09:56PM 41.4260 -88.0210 198° South 381 438 23,000 2,880 Climbing FlightAware
09:57PM 41.3560 -88.0470 196° South 397 457 24,900 2,760 Climbing FlightAware
09:58PM 41.2770 -88.0740 194° South 410 472 26,900 2,400 Climbing FlightAware
09:58PM 41.2010 -88.0980 193° South 428 493 28,300 2,160 Climbing FlightAware
09:59PM 41.1150 -88.1220 192° South 440 506 30,000 2,340 Climbing FlightAware
10:00PM 41.0390 -88.1430 192° South 448 516 31,500 2,460 Climbing FlightAware
10:00PM 40.9410 -88.1720 193° South 447 514 33,500 2,280 Climbing FlightAware
10:01PM 40.8630 -88.2000 195° South 425 489 34,900 1,620 Climbing FlightAware
10:02PM 40.7840 -88.2520 206° Southwest 434 499 35,800 1,140 Climbing FlightAware
10:03PM 40.7150 -88.3010 208° Southwest 446 513 36,500 1,500 Climbing FlightAware
10:03PM 40.6440 -88.3510 208° Southwest 442 509 37,800 1,020 Climbing FlightAware
10:04PM 40.5650 -88.4070 208° Southwest 435 501 38,000 120 Climbing FlightAware
10:05PM 40.4870 -88.4610 208° Southwest 433 498 38,000  Level FlightAware
10:05PM 40.4180 -88.5090 208° Southwest 432 497 38,000 240 Level FlightAware
10:06PM 40.3390 -88.5650 208° Southwest 432 497 38,400 840 Climbing FlightAware
10:07PM 40.2690 -88.6140 208° Southwest 434 499 39,200 1,140 Climbing FlightAware
10:07PM 40.1940 -88.6650 207° Southwest 433 498 40,000 540 Climbing FlightAware
10:08PM 40.1120 -88.7220 208° Southwest 435 501 40,000  Level FlightAware
10:09PM 40.0540 -88.7630 208° Southwest 434 499 40,000  Level FlightAware
10:10PM 39.9650 -88.8240 208° Southwest 434 499 40,000  Level FlightAware
10:10PM 39.8930 -88.8730 208° Southwest 435 501 40,000  Level FlightAware
10:11PM 39.8220 -88.9220 208° Southwest 434 499 40,000  Level FlightAware
10:12PM 39.7430 -88.9770 208° Southwest 434 499 40,000  Level FlightAware
10:12PM 39.6700 -89.0260 207° Southwest 435 501 40,000  Level FlightAware
10:13PM 39.5960 -89.0770 208° Southwest 436 502 40,000  Level FlightAware
10:14PM 39.5140 -89.1320 207° Southwest 438 504 40,000  Level FlightAware
10:14PM 39.4480 -89.1770 208° Southwest 440 506 40,000  Level FlightAware
10:15PM 39.3660 -89.2320 207° Southwest 441 507 40,000  Level FlightAware
10:16PM 39.3080 -89.2720 208° Southwest 440 506 40,000  Level FlightAware
10:17PM 39.2150 -89.3340 207° Southwest 442 509 40,000  Level FlightAware
10:17PM 39.1360 -89.3870 207° Southwest 443 510 40,000  Level FlightAware
10:18PM 39.0650 -89.4350 208° Southwest 444 511 40,000  Level FlightAware
10:19PM 38.9940 -89.4820 207° Southwest 444 511 40,000  Level FlightAware
10:19PM 38.9120 -89.5370 208° Southwest 444 511 40,000  Level FlightAware
10:20PM 38.8320 -89.5900 207° Southwest 442 509 40,000  Level FlightAware
10:21PM 38.7600 -89.6380 207° Southwest 442 509 40,000  Level FlightAware
10:21PM 38.6870 -89.6860 207° Southwest 442 509 40,000  Level FlightAware
10:22PM 38.6110 -89.7360 207° Southwest 442 509 40,000  Level FlightAware
10:23PM 38.5260 -89.7920 207° Southwest 446 513 40,000  Level FlightAware
10:24PM 38.4500 -89.8420 207° Southwest 448 516 40,000  Level FlightAware
10:24PM 38.3780 -89.8890 207° Southwest 448 516 40,000  Level FlightAware
10:25PM 38.2980 -89.9410 207° Southwest 450 518 40,000  Level FlightAware
10:26PM 38.2220 -89.9910 207° Southwest 450 518 40,000  Level FlightAware
10:26PM 38.1590 -90.0320 207° Southwest 450 518 40,000  Level FlightAware
10:27PM 38.0660 -90.0920 207° Southwest 450 518 40,000  Level FlightAware
10:28PM 37.9900 -90.1410 207° Southwest 452 520 40,000  Level FlightAware
10:28PM 37.9220 -90.1850 207° Southwest 453 521 40,000  Level FlightAware
10:29PM 37.8460 -90.2340 207° Southwest 453 521 40,000  Level FlightAware
10:30PM 37.7870 -90.2720 207° Southwest 453 521 40,000  Level FlightAware
10:30PM 37.7250 -90.3120 207° Southwest 453 521 40,000  Level FlightAware
10:31PM 37.6510 -90.3600 207° Southwest 453 521 40,000  Level FlightAware
10:32PM 37.5920 -90.3980 207° Southwest 453 521 40,000  Level FlightAware
10:33PM 37.5170 -90.4460 207° Southwest 453 521 40,000  Level FlightAware
10:33PM 37.4590 -90.4840 207° Southwest 453 521 40,000  Level FlightAware
10:34PM 37.2810 -90.5940 206° Southwest 455 524 40,000  Level FlightAware
10:35PM 37.2020 -90.6450 207° Southwest 456 525 40,000  Level FlightAware
10:35PM 37.1260 -90.6920 206° Southwest 457 526 40,000  Level FlightAware
10:36PM 37.0400 -90.7470 207° Southwest 457 526 40,000  Level FlightAware
10:37PM 36.9550 -90.7980 206° Southwest 459 528 40,000  Level FlightAware
10:38PM 36.8730 -90.8390 202° Southwest 462 532 40,000  Level FlightAware
10:38PM 36.7890 -90.8800 201° Southwest 462 532 40,000  Level FlightAware
10:39PM 36.7070 -90.9180 200° South 462 532 40,000  Level FlightAware
10:40PM 36.6210 -90.9590 201° Southwest 463 533 40,000  Level FlightAware
10:40PM 36.5390 -90.9980 201° Southwest 464 534 40,000  Level FlightAware
10:41PM 36.4530 -91.0380 201° Southwest 465 535 40,000  Level FlightAware
10:42PM 36.3890 -91.0680 201° Southwest 466 536 40,000  Level FlightAware
10:42PM 36.2820 -91.1190 201° Southwest 466 536 40,000  Level FlightAware
10:43PM 36.1980 -91.1580 201° Southwest 468 539 40,000  Level FlightAware
10:44PM 36.0850 -91.2110 201° Southwest 468 539 40,000  Level FlightAware
10:45PM 36.0110 -91.2440 200° South 468 539 40,000  Level FlightAware
10:45PM 35.9180 -91.2880 201° Southwest 463 533 40,000 -120 Level FlightAware
10:46PM 35.8310 -91.3280 200° South 459 528 39,900 -540 Descending FlightAware
10:47PM 35.7490 -91.3660 201° Southwest 455 524 39,300 -780 Descending FlightAware
10:48PM 35.6700 -91.4030 201° Southwest 444 511 38,900 -960 Descending FlightAware
10:48PM 35.5890 -91.4400 200° South 443 510 38,000 -1,080 Descending FlightAware
10:49PM 35.5210 -91.4710 200° South 438 504 37,500 -300 Descending FlightAware
10:50PM 35.4160 -91.5180 200° South 438 504 37,500 -720 Level FlightAware
10:51PM 35.3070 -91.5690 201° Southwest 428 493 36,200 -900 Descending FlightAware
10:51PM 35.2480 -91.5950 200° South 428 493 36,200  Level FlightAware
10:52PM 35.1710 -91.6300 200° South 428 493 36,200  Level FlightAware
10:53PM 35.1080 -91.6580 200° South 428 493 36,200  Level FlightAware
10:54PM 35.0520 -91.6820 199° South 428 493 36,200  Level FlightAware
10:54PM 34.9760 -91.7160 200° South 428 493 36,200  Level FlightAware
10:55PM 34.9190 -91.7410 200° South 428 493 36,200  Level FlightAware
10:56PM 34.8430 -91.7750 200° South 428 493 36,200  Level FlightAware
10:56PM 34.7860 -91.8000 200° South 428 493 36,200  Level FlightAware
10:57PM 34.7110 -91.8340 200° South 428 493 36,200  Level FlightAware
10:58PM 34.6500 -91.8610 200° South 428 493 36,200  Level FlightAware
10:59PM 34.5760 -91.8930 200° South 428 493 36,200  Level FlightAware
10:59PM 34.5190 -91.9190 201° Southwest 428 493 36,200  Level FlightAware
11:00PM 34.4430 -91.9520 200° South 428 493 36,200 -180 Level FlightAware
11:00PM 34.2622 -91.9906 200° South 419 482 36,000 -180 Descending Memphis Center
11:01PM 34.1492 -92.0261 195° South 419 482 36,000  Level Memphis Center
11:02PM 34.0422 -92.0642 196° South 419 482 36,000  Level Memphis Center
11:04PM 33.8408 -92.1247 194° South 414 476 36,000  Level Fort Worth Center
11:05PM 33.7292 -92.1539 192° South 414 476 36,000  Level Fort Worth Center
11:06PM 33.6181 -92.1906 195° South 414 476 36,000  Level Fort Worth Center
11:07PM 33.5047 -92.2222 193° South 414 476 36,000  Level Fort Worth Center
11:08PM 33.3975 -92.2533 194° South 409 471 36,000  Level Fort Worth Center
11:09PM 33.2903 -92.2869 195° South 409 471 36,000  Level Fort Worth Center
11:10PM 33.1769 -92.3183 193° South 414 476 36,000  Level Fort Worth Center
11:11PM 33.0656 -92.3519 194° South 419 482 36,000  Level Fort Worth Center
11:17PM 32.4496 -92.5378 194° South 403 464 36,000  Level FlightAware ADS-B
11:17PM 32.3947 -92.5538 194° South 405 466 36,000  Level FlightAware ADS-B
11:18PM 32.3387 -92.5703 194° South 404 465 36,000  Level FlightAware ADS-B
11:18PM 32.2580 -92.5940 194° South 405 466 36,000 -120 Level FlightAware ADS-B
11:19PM 32.2336 -92.6014 194° South 405 466 35,900  Descending Houston Center
11:20PM 32.1225 -92.6314 193° South 409 471 36,000 -300 Climbing Houston Center
11:25PM 31.6079 -93.0307 193° South 389 448 34,000 -360 Descending FlightAware ADS-B
11:26PM 31.5660 -93.0712 219° Southwest 388 447 34,000  Level FlightAware ADS-B
11:27PM 31.5224 -93.1131 219° Southwest 388 447 34,000 -120 Level FlightAware ADS-B
11:27PM 31.4566 -93.1761 219° Southwest 386 444 33,900 -660 Descending FlightAware ADS-B
11:28PM 31.3831 -93.2466 219° Southwest 384 442 32,900 -1,140 Descending FlightAware ADS-B
11:29PM 31.3143 -93.3123 219° Southwest 384 442 32,000 -1,080 Descending FlightAware ADS-B
11:30PM 31.2700 -93.3545 219° Southwest 382 440 31,500 -1,140 Descending FlightAware ADS-B
11:32PM 31.1104 -93.5063 219° Southwest 377 434 29,300 -1,200 Descending FlightAware ADS-B
11:32PM 31.0698 -93.5450 219° Southwest 373 429 28,600 -1,500 Descending FlightAware ADS-B
11:33PM 31.0293 -93.5831 219° Southwest 369 425 27,800 -1,500 Descending FlightAware ADS-B
11:33PM 30.9895 -93.6208 219° Southwest 365 420 27,100 -1,500 Descending FlightAware ADS-B
11:34PM 30.9496 -93.6587 219° Southwest 362 417 26,300 -1,500 Descending FlightAware ADS-B
11:34PM 30.9098 -93.6962 219° Southwest 364 419 25,600 -1,440 Descending FlightAware ADS-B
11:35PM 30.8705 -93.7335 219° Southwest 366 421 24,900 -1,440 Descending FlightAware ADS-B
11:35PM 30.8309 -93.7709 219° Southwest 363 418 24,200 -1,500 Descending FlightAware ADS-B
11:36PM 30.7910 -93.8085 219° Southwest 358 412 23,400 -1,500 Descending FlightAware ADS-B
11:36PM 30.7525 -93.8445 219° Southwest 353 406 22,700 -1,440 Descending FlightAware ADS-B
11:37PM 30.7144 -93.8803 219° Southwest 349 402 22,000 -1,380 Descending FlightAware ADS-B
11:37PM 30.6765 -93.9159 219° Southwest 345 397 21,300 -1,380 Descending FlightAware ADS-B
11:38PM 30.6389 -93.9513 219° Southwest 343 395 20,600 -1,380 Descending FlightAware ADS-B
11:38PM 30.6008 -93.9869 219° Southwest 343 395 19,900 -1,380 Descending FlightAware ADS-B
11:39PM 30.5636 -94.0218 219° Southwest 338 389 19,200 -1,380 Descending FlightAware ADS-B
11:39PM 30.5264 -94.0565 219° Southwest 333 383 18,500 -1,380 Descending FlightAware ADS-B
11:40PM 30.4894 -94.0910 219° Southwest 328 377 17,800 -1,380 Descending FlightAware ADS-B
11:40PM 30.4536 -94.1245 219° Southwest 325 374 17,100 -1,440 Descending FlightAware ADS-B
11:40PM 30.4305 -94.1460 219° Southwest 323 372 16,600 -1,440 Descending FlightAware ADS-B
11:41PM 30.4230 -94.1539 222° Southwest 323 372 16,500 -1,320 Descending FlightAware ADS-B
11:41PM 30.4156 -94.1630 227° Southwest 321 369 16,300 -1,320 Descending FlightAware ADS-B
11:41PM 30.4093 -94.1721 231° Southwest 319 367 16,200 -720 Descending FlightAware ADS-B
11:41PM 30.4015 -94.1856 236° Southwest 318 366 16,100 -840 Descending FlightAware ADS-B
11:42PM 30.3580 -94.2726 240° Southwest 310 357 15,300 -1,080 Descending FlightAware ADS-B
11:43PM 30.3152 -94.3582 240° Southwest 301 346 14,000 -1,260 Descending FlightAware ADS-B
11:43PM 30.2945 -94.3995 240° Southwest 295 339 13,400 -1,200 Descending FlightAware ADS-B
11:45PM 30.2329 -94.5224 240° Southwest 290 334 11,600 -1,260 Descending FlightAware ADS-B
11:45PM 30.2125 -94.5629 240° Southwest 288 331 10,900 -1,320 Descending FlightAware ADS-B
11:46PM 30.1925 -94.6028 240° Southwest 283 326 10,300 -900 Descending FlightAware ADS-B
11:46PM 30.1738 -94.6399 240° Southwest 277 319 10,000 -960 Descending FlightAware ADS-B
11:48PM 30.1347 -94.7175 239° Southwest 275 316 8,900 -1,140 Descending FlightAware ADS-B
11:49PM 30.0773 -94.8311 240° Southwest 265 305 7,200 -1,200 Descending FlightAware ADS-B
11:49PM 30.0701 -94.8452 239° Southwest 263 303 6,900 -1,200 Descending FlightAware ADS-B
11:50PM 30.0525 -94.8801 240° Southwest 258 297 6,400 -960 Descending FlightAware ADS-B
11:50PM 30.0477 -94.8911 245° Southwest 255 293 6,300 -960 Descending FlightAware ADS-B
11:50PM 30.0458 -94.8961 246° West 254 292 6,200 -720 Descending FlightAware ADS-B
11:50PM 30.0439 -94.9019 249° West 252 290 6,200 -780 Level FlightAware ADS-B
11:50PM 30.0427 -94.9062 252° West 251 289 6,100 -900 Descending FlightAware ADS-B
11:50PM 30.0380 -94.9273 256° West 247 284 5,900 -780 Descending FlightAware ADS-B
11:51PM 30.0339 -94.9466 256° West 244 281 5,700 -1,020 Descending FlightAware ADS-B
11:51PM 30.0298 -94.9658 256° West 242 278 5,400 -960 Descending FlightAware ADS-B
11:51PM 30.0217 -95.0034 256° West 232 267 5,000 -900 Descending FlightAware ADS-B
11:52PM 30.0141 -95.0381 256° West 214 246 4,500 -1,140 Descending FlightAware ADS-B
11:52PM 30.0080 -95.0671 256° West 195 224 3,900 -780 Descending FlightAware ADS-B
11:53PM 29.9952 -95.1272 256° West 177 204 3,400 -540 Descending FlightAware ADS-B
11:53PM 29.9938 -95.1352 260° West 174 200 3,300 -720 Descending FlightAware ADS-B
11:54PM 29.9934 -95.1428 267° West 173 199 3,200 -960 Descending FlightAware ADS-B
11:54PM 29.9934 -95.1701 270° West 165 190 2,700 -960 Descending FlightAware ADS-B
11:55PM 29.9935 -95.1949 270° West 160 184 2,300 -960 Descending FlightAware ADS-B
11:55PM 29.9934 -95.2093 270° West 161 185 2,000 -1,020 Descending FlightAware ADS-B
11:55PM 29.9934 -95.2153 270° West 161 185 1,900 -660 Descending FlightAware ADS-B
11:55PM 29.9935 -95.2256 271° West 160 184 1,800 -780 Descending FlightAware ADS-B
11:55PM 29.9935 -95.2360 270° West 159 183 1,600 -1,020 Descending FlightAware ADS-B
11:56PM 29.9934 -95.2407 269° West 158 182 1,500 -900 Descending FlightAware ADS-B
11:56PM 29.9934 -95.2532 270° West 148 170 1,300 -780 Descending FlightAware ADS-B
11:56PM 29.9934 -95.2649 270° West 143 165 1,100 -780 Descending FlightAware ADS-B
11:56PM 29.9934 -95.2715 270° West 143 165 1,000 -780 Descending FlightAware ADS-B
11:57PM 29.9934 -95.2887 270° West 142 163 700 -780 Descending FlightAware ADS-B
11:57PM 29.9934 -95.3014 270° West 142 163 500 -600 Descending FlightAware ADS-B
11:57PM 29.9934 -95.3132 270° West 141 162 400 -600 Descending FlightAware ADS-B
11:57PM 29.9935 -95.3249 271° West 141 162 200 -600 Descending FlightAware ADS-B
11:58PM 29.9935 -95.3361 270° West 125 144 100 -420 Descending FlightAware ADS-B